Time;durP1;ratioP1;P1;durP2;ratioP2;P2;SDS_P1;SDS_P2;PMS_P1;PMS_P2;Temp;Humidity;BMP_temperature;BMP_pressure;BME280_temperature;BME280_humidity;BME280_pressure;Samples;Min_cycle;Max_cycle;Signal;HPM_P1;HPM_P2
2023/03/10 00:01:15;;;;;;;6.35;4.05;;;0.80;99.90;;;;;;6246286;23;20012;-89
2023/03/10 00:03:41;;;;;;;5.30;3.67;;;0.80;99.90;;;;;;6245973;23;21123;-90
2023/03/10 00:06:09;;;;;;;4.75;2.70;;;0.80;99.90;;;;;;6246294;23;20020;-90
2023/03/10 00:08:34;;;;;;;6.38;3.25;;;0.80;99.90;;;;;;6246176;23;20011;-89
2023/03/10 00:11:00;;;;;;;4.22;2.90;;;0.80;99.90;;;;;;6219673;23;20008;-90
2023/03/10 00:13:26;;;;;;;3.67;2.53;;;0.80;99.90;;;;;;6246225;23;20436;-91
2023/03/10 00:15:52;;;;;;;3.67;2.60;;;0.80;99.90;;;;;;6220126;23;20035;-92
2023/03/10 00:18:18;;;;;;;3.03;1.88;;;0.80;99.90;;;;;;6246809;23;20007;-91
2023/03/10 00:20:44;;;;;;;3.20;2.25;;;0.70;99.90;;;;;;6246886;23;20126;-91
2023/03/10 00:23:09;;;;;;;2.70;2.08;;;0.80;99.90;;;;;;6246273;23;19996;-91
2023/03/10 00:25:35;;;;;;;3.33;2.38;;;0.80;99.90;;;;;;6219879;23;20399;-91
2023/03/10 00:28:00;;;;;;;4.13;2.70;;;0.80;99.90;;;;;;6219135;23;20428;-91
2023/03/10 00:30:28;;;;;;;3.38;2.42;;;0.80;99.90;;;;;;6246597;23;20011;-92
2023/03/10 00:32:53;;;;;;;2.88;2.20;;;0.70;99.90;;;;;;6220274;23;20008;-92
2023/03/10 00:35:19;;;;;;;3.58;1.33;;;0.80;99.90;;;;;;6247173;23;20321;-91
2023/03/10 00:37:45;;;;;;;3.05;2.00;;;0.70;99.90;;;;;;6246766;23;20000;-91
2023/03/10 00:40:13;;;;;;;2.97;2.22;;;0.80;99.90;;;;;;6246678;23;20004;-91
2023/03/10 00:42:39;;;;;;;2.25;1.95;;;0.80;99.90;;;;;;6246693;23;20110;-93
2023/03/10 00:45:05;;;;;;;3.75;2.60;;;0.80;99.90;;;;;;6248392;23;20049;-92
2023/03/10 00:47:31;;;;;;;3.95;2.83;;;0.80;99.90;;;;;;6252105;23;20090;-92
2023/03/10 00:49:57;;;;;;;2.75;2.20;;;0.70;99.90;;;;;;6251285;23;20000;-92
2023/03/10 00:52:23;;;;;;;5.40;2.78;;;0.70;99.90;;;;;;6226856;23;20068;-91
2023/03/10 00:54:50;;;;;;;4.43;2.55;;;0.70;99.90;;;;;;6257778;23;20031;-92
2023/03/10 00:57:16;;;;;;;3.90;2.60;;;0.70;99.90;;;;;;6226783;23;20079;-94
2023/03/10 00:59:42;;;;;;;3.95;2.80;;;0.80;99.90;;;;;;6248523;23;20378;-92
2023/03/10 01:02:08;;;;;;;4.30;2.65;;;0.80;99.90;;;;;;6251560;23;20000;-92
2023/03/10 01:04:34;;;;;;;3.78;2.55;;;0.80;99.90;;;;;;6237675;23;20103;-91
2023/03/10 01:06:59;;;;;;;3.08;2.08;;;0.80;99.90;;;;;;6219722;23;20039;-93
2023/03/10 01:09:25;;;;;;;4.15;2.38;;;0.80;99.90;;;;;;6246619;23;20016;-91
2023/03/10 01:11:51;;;;;;;2.30;1.90;;;0.70;99.90;;;;;;6246046;23;19996;-91
2023/03/10 01:14:17;;;;;;;3.95;2.28;;;0.70;99.90;;;;;;6246296;23;20078;-91
2023/03/10 01:16:43;;;;;;;3.50;2.90;;;0.80;99.90;;;;;;6246343;23;20004;-90
2023/03/10 01:19:09;;;;;;;4.70;3.15;;;0.80;99.90;;;;;;6246177;23;20006;-90
2023/03/10 01:21:37;;;;;;;3.38;1.98;;;0.70;99.90;;;;;;6219326;23;20011;-90
2023/03/10 01:24:04;;;;;;;4.95;2.88;;;0.80;99.90;;;;;;6218671;23;20020;-92
2023/03/10 01:26:29;;;;;;;3.00;2.45;;;0.80;99.90;;;;;;6245413;23;19992;-92
2023/03/10 01:28:55;;;;;;;3.17;2.58;;;0.80;99.90;;;;;;6220012;23;20039;-91
2023/03/10 01:31:21;;;;;;;1.52;1.08;;;0.80;99.90;;;;;;6234946;23;19992;-85
2023/03/10 01:33:47;;;;;;;2.03;1.52;;;0.80;99.90;;;;;;6251355;23;20000;-90
2023/03/10 01:36:19;;;;;;;1.10;0.98;;;0.80;99.90;;;;;;6221437;23;20015;-92
2023/03/10 01:38:45;;;;;;;0.40;0.40;;;0.80;99.90;;;;;;6248058;23;20001;-94
2023/03/10 01:41:11;;;;;;;0.70;0.60;;;0.80;99.90;;;;;;6221156;23;20364;-91
2023/03/10 01:43:43;;;;;;;1.42;0.70;;;0.80;99.90;;;;;;6250126;23;20056;-91
2023/03/10 01:46:36;;;;;;;1.08;0.98;;;0.80;99.90;;;;;;6235833;23;20019;-91
2023/03/10 01:49:08;;;;;;;1.55;1.35;;;0.80;99.90;;;;;;6236692;23;20038;-92
2023/03/10 01:51:36;;;;;;;3.10;1.80;;;0.70;99.90;;;;;;6230933;23;20016;-91
2023/03/10 01:54:06;;;;;;;2.08;1.80;;;0.70;99.90;;;;;;6256314;23;20012;-90
2023/03/10 01:56:33;;;;;;;2.35;1.80;;;0.70;99.90;;;;;;6227821;23;20008;-94
2023/03/10 01:58:59;;;;;;;3.28;2.17;;;0.70;99.90;;;;;;6248443;23;20000;-93
2023/03/10 02:01:24;;;;;;;3.80;2.30;;;0.80;99.90;;;;;;6247307;23;20008;-93
2023/03/10 02:04:01;;;;;;;3.53;2.40;;;0.70;99.90;;;;;;6246741;23;20483;-94
2023/03/10 02:06:28;;;;;;;2.97;2.08;;;0.70;99.90;;;;;;6247065;23;20020;-92
2023/03/10 02:08:58;;;;;;;4.00;2.90;;;0.70;99.90;;;;;;6221440;23;20083;-93
2023/03/10 02:11:23;;;;;;;3.28;1.98;;;0.70;99.90;;;;;;6225682;23;20000;-94
2023/03/10 02:13:49;;;;;;;3.53;2.50;;;0.70;99.90;;;;;;6251557;23;20015;-92
2023/03/10 02:16:16;;;;;;;2.95;1.95;;;0.70;99.90;;;;;;6248082;23;20004;-92
2023/03/10 02:18:44;;;;;;;2.78;1.80;;;0.70;99.90;;;;;;6220279;23;20015;-95
2023/03/10 02:21:29;;;;;;;5.07;1.65;;;0.70;99.90;;;;;;6246927;23;20015;-91
2023/03/10 02:24:09;;;;;;;2.88;1.80;;;0.70;99.90;;;;;;6220331;23;20087;-93
2023/03/10 02:26:58;;;;;;;2.78;1.40;;;0.70;99.90;;;;;;6221175;23;20014;-94
2023/03/10 02:29:53;;;;;;;3.22;1.70;;;0.70;99.90;;;;;;6260940;23;20000;-94
2023/03/10 02:32:21;;;;;;;1.33;1.10;;;0.70;99.90;;;;;;6221222;23;20011;-94
2023/03/10 02:34:46;;;;;;;0.80;0.70;;;0.70;99.90;;;;;;6220915;23;20473;-95
2023/03/10 02:37:38;;;;;;;0.82;0.70;;;0.70;99.90;;;;;;6247841;23;20068;-92
2023/03/10 02:40:42;;;;;;;1.98;0.98;;;0.70;99.90;;;;;;6215453;23;20001;-94
2023/03/10 02:43:28;;;;;;;1.27;1.10;;;0.80;99.90;;;;;;6098763;23;20383;-94
2023/03/10 02:45:57;;;;;;;1.60;1.20;;;0.80;99.90;;;;;;6076824;23;20066;-94
2023/03/10 02:48:28;;;;;;;1.17;0.82;;;0.80;99.90;;;;;;6104330;23;20014;-91
2023/03/10 02:50:54;;;;;;;1.80;1.40;;;0.80;99.90;;;;;;6110821;23;20002;-92
2023/03/10 02:53:23;;;;;;;1.25;1.00;;;0.80;99.90;;;;;;6106301;23;20005;-96
2023/03/10 02:55:50;;;;;;;1.20;1.10;;;0.80;99.90;;;;;;6107837;23;20071;-93
2023/03/10 02:58:16;;;;;;;0.73;0.60;;;0.80;99.90;;;;;;6108322;23;20015;-92
2023/03/10 03:00:44;;;;;;;0.65;0.60;;;0.80;99.90;;;;;;6112220;23;20045;-95
2023/03/10 03:03:12;;;;;;;0.40;0.40;;;0.80;99.90;;;;;;6086478;23;20029;-95
2023/03/10 03:05:38;;;;;;;0.60;0.60;;;0.80;99.90;;;;;;6086338;23;20022;-94
2023/03/10 03:08:05;;;;;;;1.20;0.80;;;0.80;99.90;;;;;;6092003;23;19994;-93
2023/03/10 03:10:31;;;;;;;0.88;0.88;;;0.80;99.90;;;;;;6122264;23;20007;-95
2023/03/10 03:12:57;;;;;;;1.55;1.10;;;0.70;99.90;;;;;;6115773;23;20007;-94
2023/03/10 03:15:26;;;;;;;1.20;1.10;;;0.70;99.90;;;;;;6114947;23;20022;-93
2023/03/10 03:17:53;;;;;;;1.10;1.00;;;0.80;99.90;;;;;;6244226;23;20000;-95
2023/03/10 03:20:20;;;;;;;1.50;1.30;;;0.70;99.90;;;;;;6239594;23;20035;-91
2023/03/10 03:22:49;;;;;;;2.97;1.42;;;0.80;99.90;;;;;;6263857;23;19996;-95
2023/03/10 03:25:18;;;;;;;1.73;1.25;;;0.70;99.90;;;;;;6263503;23;20127;-93
2023/03/10 03:27:44;;;;;;;2.53;1.80;;;0.70;99.90;;;;;;6240773;23;20019;-96
2023/03/10 03:30:21;;;;;;;2.40;1.48;;;0.70;99.90;;;;;;6266401;23;20004;-93
2023/03/10 03:32:47;;;;;;;2.38;1.80;;;0.70;99.90;;;;;;6267934;23;19992;-94
2023/03/10 03:35:26;;;;;;;3.17;2.03;;;0.70;99.90;;;;;;6243229;23;20034;-94
2023/03/10 03:37:52;;;;;;;2.28;1.88;;;0.70;99.90;;;;;;6267919;23;19996;-92
2023/03/10 03:40:19;;;;;;;4.88;1.92;;;0.60;99.90;;;;;;6243205;23;19996;-88
2023/03/10 03:42:47;;;;;;;6.97;2.90;;;0.60;99.90;;;;;;6243131;23;20042;-93
2023/03/10 03:45:16;;;;;;;6.28;2.35;;;0.60;99.90;;;;;;6240139;23;20008;-93
2023/03/10 03:47:42;;;;;;;5.55;3.00;;;0.60;99.90;;;;;;6239062;23;19992;-90
2023/03/10 03:50:10;;;;;;;6.65;3.08;;;0.60;99.90;;;;;;6242570;23;20008;-91
2023/03/10 03:52:36;;;;;;;10.52;3.33;;;0.50;99.90;;;;;;6242223;23;20004;-91
2023/03/10 03:55:01;;;;;;;15.45;2.80;;;0.50;99.90;;;;;;6239871;23;20012;-89
2023/03/10 03:57:27;;;;;;;6.95;3.80;;;0.40;99.90;;;;;;6272023;22;20063;-86
2023/03/10 03:59:53;;;;;;;8.63;3.90;;;0.30;99.90;;;;;;6272764;23;20023;-87
2023/03/10 04:02:19;;;;;;;5.53;3.10;;;0.30;99.90;;;;;;6271893;22;20003;-90
2023/03/10 04:04:45;;;;;;;8.57;3.75;;;0.30;99.90;;;;;;6256163;23;20019;-93
2023/03/10 04:07:11;;;;;;;4.20;2.03;;;0.20;99.90;;;;;;6251332;23;20027;-93
2023/03/10 04:09:41;;;;;;;5.38;3.47;;;0.20;99.90;;;;;;6223864;23;20015;-93
2023/03/10 04:12:08;;;;;;;8.30;4.25;;;0.20;99.90;;;;;;6251435;23;19996;-94
2023/03/10 04:14:34;;;;;;;6.82;4.38;;;0.20;99.90;;;;;;6250397;23;20012;-94
2023/03/10 04:17:00;;;;;;;8.77;4.18;;;0.20;99.90;;;;;;6225518;23;20008;-94
2023/03/10 04:19:26;;;;;;;5.50;3.70;;;0.20;99.90;;;;;;6227472;23;20040;-93
2023/03/10 04:21:51;;;;;;;5.38;3.60;;;0.20;99.90;;;;;;6225915;23;20008;-95
2023/03/10 04:24:17;;;;;;;3.40;2.17;;;0.30;99.90;;;;;;6257420;23;20008;-93
2023/03/10 04:26:46;;;;;;;3.75;2.92;;;0.30;99.90;;;;;;6256753;23;20010;-91
2023/03/10 04:29:12;;;;;;;2.50;2.13;;;0.30;99.90;;;;;;6255604;23;20004;-93
2023/03/10 04:31:38;;;;;;;1.73;1.30;;;0.30;99.90;;;;;;6233375;23;20023;-93
2023/03/10 04:34:04;;;;;;;2.90;1.63;;;0.30;99.90;;;;;;6234982;23;20107;-92
2023/03/10 04:36:30;;;;;;;2.72;1.40;;;0.30;99.90;;;;;;6232279;23;20008;-93
2023/03/10 04:38:56;;;;;;;4.95;2.10;;;0.20;99.90;;;;;;6257781;23;20069;-90
2023/03/10 04:41:21;;;;;;;2.97;1.70;;;0.20;99.90;;;;;;6228452;23;20004;-93
2023/03/10 04:43:47;;;;;;;1.70;1.40;;;0.10;99.90;;;;;;6256425;23;19992;-91
2023/03/10 04:46:13;;;;;;;1.88;1.25;;;0.10;99.90;;;;;;6260998;23;20083;-93
2023/03/10 04:48:38;;;;;;;9.15;2.05;;;0.00;99.90;;;;;;6241134;23;20007;-93
2023/03/10 04:51:11;;;;;;;4.78;1.90;;;0.00;99.90;;;;;;6260164;23;20007;-94
2023/03/10 04:53:37;;;;;;;3.42;1.95;;;0.00;99.90;;;;;;6233633;23;20012;-94
2023/03/10 04:56:06;;;;;;;6.78;2.03;;;-0.10;99.90;;;;;;6232250;23;20055;-92
2023/03/10 04:58:32;;;;;;;6.53;2.40;;;-0.10;99.90;;;;;;6231801;23;20328;-92
2023/03/10 05:00:58;;;;;;;3.97;2.30;;;-0.10;99.90;;;;;;6232591;23;20015;-91
2023/03/10 05:03:24;;;;;;;6.53;1.75;;;-0.20;99.90;;;;;;6257013;23;20000;-94
2023/03/10 05:05:50;;;;;;;6.82;2.50;;;-0.10;99.90;;;;;;6252857;23;20013;-93
2023/03/10 05:08:16;;;;;;;4.68;2.60;;;-0.20;99.90;;;;;;6224254;23;20012;-94
2023/03/10 05:10:43;;;;;;;3.67;2.13;;;-0.20;99.90;;;;;;6226624;23;20008;-94
2023/03/10 05:13:11;;;;;;;11.88;2.38;;;-0.20;99.90;;;;;;6230049;23;20008;-93
2023/03/10 05:15:38;;;;;;;5.50;2.10;;;-0.20;99.90;;;;;;6255802;23;20037;-94
2023/03/10 05:18:04;;;;;;;4.72;1.85;;;-0.20;99.90;;;;;;6258627;23;20650;-94
2023/03/10 05:20:30;;;;;;;8.90;1.83;;;-0.20;99.90;;;;;;6256010;23;20046;-92
2023/03/10 05:22:56;;;;;;;4.85;2.00;;;-0.20;99.90;;;;;;6234638;23;20004;-92
2023/03/10 05:25:21;;;;;;;6.78;1.63;;;-0.20;99.90;;;;;;6237234;23;20035;-92
2023/03/10 05:27:47;;;;;;;1.55;0.98;;;-0.20;99.90;;;;;;6259825;23;20068;-87
2023/03/10 05:30:14;;;;;;;3.60;1.67;;;-0.20;99.90;;;;;;6260793;23;20027;-94
2023/03/10 05:32:41;;;;;;;3.65;1.50;;;-0.20;99.90;;;;;;6256920;23;19996;-90
2023/03/10 05:35:08;;;;;;;1.90;1.40;;;-0.20;99.90;;;;;;6232245;23;20042;-93
2023/03/10 05:37:42;;;;;;;5.18;1.30;;;-0.20;99.90;;;;;;6232762;23;20086;-92
2023/03/10 05:40:11;;;;;;;2.55;0.98;;;-0.20;99.90;;;;;;6254982;23;20000;-93
2023/03/10 05:42:37;;;;;;;6.18;2.33;;;-0.20;99.90;;;;;;6261388;23;20032;-93
2023/03/10 05:45:04;;;;;;;1.55;0.98;;;-0.20;99.90;;;;;;6236060;23;20012;-93
2023/03/10 05:47:30;;;;;;;1.55;1.08;;;-0.20;99.90;;;;;;6260619;23;20083;-91
2023/03/10 05:49:56;;;;;;;1.25;0.80;;;-0.20;99.90;;;;;;6260850;23;19996;-93
2023/03/10 05:52:21;;;;;;;3.22;1.00;;;-0.20;99.90;;;;;;6238303;23;20019;-89
2023/03/10 05:54:47;;;;;;;1.48;1.05;;;-0.20;99.90;;;;;;6261988;23;20015;-92
2023/03/10 05:57:13;;;;;;;1.60;1.20;;;-0.10;99.90;;;;;;6266372;23;20004;-89
2023/03/10 05:59:39;;;;;;;1.85;0.80;;;-0.10;99.90;;;;;;6238426;23;20038;-92
2023/03/10 06:02:05;;;;;;;0.60;0.47;;;-0.10;99.90;;;;;;6268012;23;20056;-88
2023/03/10 06:04:32;;;;;;;0.50;0.35;;;-0.10;99.90;;;;;;6266263;23;20576;-91
2023/03/10 06:07:01;;;;;;;0.60;0.40;;;-0.10;99.90;;;;;;6237485;23;20001;-91
2023/03/10 06:09:29;;;;;;;0.30;0.30;;;-0.10;99.90;;;;;;6259949;23;20002;-95
2023/03/10 06:11:55;;;;;;;0.90;0.40;;;-0.10;99.90;;;;;;6229207;23;20017;-91
2023/03/10 06:14:20;;;;;;;0.30;0.30;;;-0.10;99.90;;;;;;6253201;23;20067;-93
2023/03/10 06:16:50;;;;;;;0.30;0.30;;;-0.10;99.90;;;;;;6226207;23;20435;-92
2023/03/10 06:19:19;;;;;;;0.63;0.30;;;0.00;99.90;;;;;;6224798;23;20336;-93
2023/03/10 06:21:45;;;;;;;0.30;0.30;;;0.00;99.90;;;;;;6223741;23;20040;-90
2023/03/10 06:24:11;;;;;;;0.70;0.50;;;0.00;99.90;;;;;;6251668;23;20027;-93
2023/03/10 06:26:37;;;;;;;0.65;0.50;;;0.00;99.90;;;;;;6228254;23;20371;-93
2023/03/10 06:29:03;;;;;;;0.77;0.43;;;0.00;99.90;;;;;;6221314;23;20461;-95
2023/03/10 06:31:29;;;;;;;1.27;0.63;;;0.00;99.90;;;;;;6247387;23;20034;-95
2023/03/10 06:33:54;;;;;;;2.20;0.70;;;0.00;99.90;;;;;;6247581;23;20448;-94
2023/03/10 06:36:21;;;;;;;4.05;0.88;;;0.00;99.90;;;;;;6247109;23;20004;-93
2023/03/10 06:38:48;;;;;;;0.85;0.68;;;-0.10;99.90;;;;;;6221104;23;20012;-91
2023/03/10 06:41:15;;;;;;;0.95;0.80;;;-0.10;99.90;;;;;;6234092;23;20008;-93
2023/03/10 06:43:41;;;;;;;0.88;0.63;;;-0.10;99.90;;;;;;6248891;23;20008;-94
2023/03/10 06:46:08;;;;;;;0.57;0.52;;;-0.10;99.90;;;;;;6222544;23;20014;-92
2023/03/10 06:48:35;;;;;;;0.88;0.55;;;-0.10;99.90;;;;;;6220593;23;20031;-91
2023/03/10 06:51:09;;;;;;;1.98;0.80;;;-0.10;99.90;;;;;;6221085;23;20058;-92
2023/03/10 06:53:35;;;;;;;0.85;0.85;;;-0.10;99.90;;;;;;6247438;23;20083;-93
2023/03/10 06:56:01;;;;;;;2.55;1.13;;;-0.10;99.90;;;;;;6247686;23;20036;-93
2023/03/10 06:58:27;;;;;;;1.08;0.77;;;-0.10;99.90;;;;;;6247199;23;20008;-94
2023/03/10 07:00:53;;;;;;;1.85;1.23;;;-0.10;99.90;;;;;;6220476;23;20015;-91
2023/03/10 07:03:19;;;;;;;0.80;0.68;;;-0.10;99.90;;;;;;6220594;23;20333;-92
2023/03/10 07:05:44;;;;;;;3.00;0.85;;;-0.10;99.90;;;;;;6249013;23;20022;-94
2023/03/10 07:08:10;;;;;;;1.30;0.80;;;-0.10;99.90;;;;;;6221432;23;20045;-92
2023/03/10 07:10:35;;;;;;;1.40;0.80;;;-0.10;99.90;;;;;;6247679;23;20035;-92
2023/03/10 07:13:01;;;;;;;0.95;0.90;;;-0.10;99.90;;;;;;6246902;23;20066;-91
2023/03/10 07:15:28;;;;;;;1.42;0.73;;;0.00;99.90;;;;;;6246257;23;20348;-90
2023/03/10 07:17:57;;;;;;;2.08;0.60;;;0.00;99.90;;;;;;6248896;23;20008;-93
2023/03/10 07:20:23;;;;;;;3.00;0.95;;;0.10;99.90;;;;;;6220596;23;20036;-93
2023/03/10 07:22:50;;;;;;;0.55;0.40;;;0.10;99.90;;;;;;6247729;23;20087;-93
2023/03/10 07:25:16;;;;;;;2.92;0.60;;;0.10;99.90;;;;;;6248617;23;20341;-93
2023/03/10 07:27:41;;;;;;;4.07;1.20;;;0.10;99.90;;;;;;6221409;23;20004;-92
2023/03/10 07:30:08;;;;;;;3.05;0.93;;;0.20;99.90;;;;;;6247736;23;20004;-92
2023/03/10 07:32:33;;;;;;;2.15;1.45;;;0.20;99.90;;;;;;6221164;23;20004;-92
2023/03/10 07:34:59;;;;;;;2.55;1.15;;;0.20;99.90;;;;;;6248326;23;20039;-91
2023/03/10 07:37:25;;;;;;;3.97;1.17;;;0.30;99.90;;;;;;6250572;23;20008;-94
2023/03/10 07:39:53;;;;;;;4.55;1.35;;;0.30;99.90;;;;;;6251036;23;19996;-93
2023/03/10 07:42:19;;;;;;;2.63;1.40;;;0.40;99.90;;;;;;6221855;23;20331;-95
2023/03/10 07:44:44;;;;;;;2.85;1.40;;;0.40;99.90;;;;;;6248938;23;20003;-93
2023/03/10 07:47:10;;;;;;;2.20;1.35;;;0.50;99.90;;;;;;6248210;23;20015;-93
2023/03/10 07:49:36;;;;;;;1.92;1.30;;;0.50;99.90;;;;;;6221457;23;20008;-94
2023/03/10 07:52:02;;;;;;;1.92;1.40;;;0.50;99.90;;;;;;6222651;23;20012;-93
2023/03/10 07:54:27;;;;;;;2.30;1.35;;;0.60;99.90;;;;;;6248786;23;20012;-92
2023/03/10 07:56:53;;;;;;;3.28;1.00;;;0.60;99.90;;;;;;6221948;23;20436;-90
2023/03/10 07:59:19;;;;;;;1.00;0.80;;;0.70;99.90;;;;;;6248833;23;20014;-93
2023/03/10 08:01:44;;;;;;;6.07;1.30;;;0.70;99.90;;;;;;6255170;23;20006;-90
2023/03/10 08:04:11;;;;;;;1.80;1.25;;;0.80;99.90;;;;;;6235506;23;20011;-84
2023/03/10 08:06:37;;;;;;;3.88;1.13;;;0.80;99.90;;;;;;6256892;23;20004;-93
2023/03/10 08:09:03;;;;;;;2.25;0.98;;;0.90;99.90;;;;;;6251469;23;20008;-93
2023/03/10 08:11:29;;;;;;;3.88;0.90;;;0.90;99.90;;;;;;6224758;23;20065;-94
2023/03/10 08:13:55;;;;;;;0.95;0.75;;;0.90;99.90;;;;;;6225041;23;20059;-92
2023/03/10 08:16:22;;;;;;;1.52;0.80;;;1.00;99.90;;;;;;6241230;23;20011;-91
2023/03/10 08:18:52;;;;;;;2.40;0.90;;;1.00;99.90;;;;;;6268036;23;20056;-86
2023/03/10 08:21:18;;;;;;;2.13;0.77;;;1.10;99.90;;;;;;6260826;23;20005;-91
2023/03/10 08:23:43;;;;;;;2.15;1.13;;;1.10;99.90;;;;;;6267072;23;19985;-87
2023/03/10 08:26:13;;;;;;;3.67;1.35;;;1.10;99.90;;;;;;6246355;22;20028;-81
2023/03/10 08:28:39;;;;;;;1.45;1.13;;;1.20;99.90;;;;;;6237083;23;20012;-85
2023/03/10 08:31:10;;;;;;;3.38;2.00;;;1.20;99.90;;;;;;6253141;23;20000;-93
2023/03/10 08:33:36;;;;;;;6.85;1.95;;;1.30;99.90;;;;;;6250531;23;20000;-92
2023/03/10 08:36:03;;;;;;;2.85;2.17;;;1.30;99.90;;;;;;6248940;23;20019;-92
2023/03/10 08:38:29;;;;;;;4.03;2.42;;;1.30;99.90;;;;;;6249244;23;20003;-93
2023/03/10 08:40:56;;;;;;;3.95;2.33;;;1.40;99.90;;;;;;6248127;23;20014;-91
2023/03/10 08:43:21;;;;;;;4.50;2.92;;;1.50;99.90;;;;;;6221146;23;20004;-93
2023/03/10 08:45:47;;;;;;;3.40;1.80;;;1.50;99.90;;;;;;6220963;23;20000;-90
2023/03/10 08:48:13;;;;;;;4.22;1.80;;;1.60;99.90;;;;;;6221360;23;20015;-93
2023/03/10 08:50:38;;;;;;;4.97;1.70;;;1.60;99.90;;;;;;6220552;23;20569;-93
2023/03/10 08:53:04;;;;;;;5.95;1.67;;;1.60;99.90;;;;;;6220461;23;20343;-94
2023/03/10 08:55:30;;;;;;;4.35;1.50;;;1.70;99.90;;;;;;6221934;23;20019;-93
2023/03/10 08:57:55;;;;;;;6.35;2.17;;;1.80;99.90;;;;;;6220827;23;20005;-91
2023/03/10 09:00:22;;;;;;;1.35;1.05;;;1.90;99.90;;;;;;6222173;23;20039;-94
2023/03/10 09:02:49;;;;;;;2.72;1.02;;;2.00;99.90;;;;;;6221988;23;20058;-93
2023/03/10 09:05:15;;;;;;;1.88;0.90;;;2.00;99.90;;;;;;6247886;23;20508;-92
2023/03/10 09:07:41;;;;;;;1.30;1.10;;;2.10;99.90;;;;;;6246579;23;20062;-91
2023/03/10 09:10:07;;;;;;;4.03;1.10;;;2.30;99.90;;;;;;6251975;23;20008;-90
2023/03/10 09:12:32;;;;;;;1.85;1.30;;;2.40;99.90;;;;;;6220256;23;20026;-93
2023/03/10 09:14:58;;;;;;;1.00;0.70;;;2.60;99.90;;;;;;6246462;23;20008;-91
2023/03/10 09:17:24;;;;;;;2.03;1.20;;;2.70;99.90;;;;;;6245581;23;20050;-94
2023/03/10 09:19:49;;;;;;;1.98;1.05;;;2.90;99.90;;;;;;6246098;23;20000;-92
2023/03/10 09:22:15;;;;;;;4.55;1.92;;;3.00;99.90;;;;;;6246830;23;20000;-92
2023/03/10 09:24:41;;;;;;;2.13;1.10;;;3.10;99.90;;;;;;6248101;23;20058;-91
2023/03/10 09:27:06;;;;;;;2.85;1.50;;;3.20;99.90;;;;;;6238861;22;19984;-86
2023/03/10 09:29:34;;;;;;;4.38;2.17;;;3.20;99.90;;;;;;6236492;23;20004;-86
2023/03/10 09:31:59;;;;;;;2.45;1.50;;;3.20;99.90;;;;;;6260345;23;20057;-90
2023/03/10 09:34:26;;;;;;;4.72;1.55;;;3.30;99.90;;;;;;6233077;23;20016;-88
2023/03/10 09:36:52;;;;;;;1.42;1.17;;;3.30;99.90;;;;;;6228201;23;20004;-91
2023/03/10 09:39:18;;;;;;;3.00;1.33;;;3.40;99.90;;;;;;6248984;23;20058;-91
2023/03/10 09:41:44;;;;;;;2.63;1.17;;;3.40;99.90;;;;;;6223605;23;20026;-91
2023/03/10 09:44:23;;;;;;;5.50;1.60;;;3.50;99.90;;;;;;6246783;23;20008;-90
2023/03/10 09:46:55;;;;;;;4.07;1.15;;;3.50;99.90;;;;;;6246845;23;19997;-91
2023/03/10 09:49:36;;;;;;;2.30;1.00;;;3.60;99.90;;;;;;6245520;23;20008;-91
2023/03/10 09:52:18;;;;;;;1.75;0.80;;;3.60;99.90;;;;;;6218381;23;20004;-92
2023/03/10 09:54:54;;;;;;;2.15;1.17;;;3.70;99.90;;;;;;6220050;23;20016;-91
2023/03/10 09:57:21;;;;;;;2.33;1.10;;;3.80;99.90;;;;;;6220505;23;20004;-91
2023/03/10 09:59:50;;;;;;;5.40;1.20;;;3.90;99.90;;;;;;6220199;23;20007;-92
2023/03/10 10:02:31;;;;;;;3.10;1.10;;;4.00;99.90;;;;;;6221254;23;20000;-90
2023/03/10 10:05:02;;;;;;;6.32;1.70;;;4.10;99.90;;;;;;6226877;23;20020;-90
2023/03/10 10:07:41;;;;;;;1.25;1.10;;;4.10;99.90;;;;;;6247288;23;20011;-90
2023/03/10 10:10:18;;;;;;;1.05;0.98;;;4.20;99.90;;;;;;6247236;23;20008;-89
2023/03/10 10:12:48;;;;;;;2.28;1.23;;;4.10;99.90;;;;;;6246925;23;20001;-90
2023/03/10 10:15:20;;;;;;;1.63;1.20;;;4.20;99.90;;;;;;6246728;23;20491;-90
2023/03/10 10:18:12;;;;;;;1.90;1.30;;;4.30;99.90;;;;;;6219365;23;20000;-89
2023/03/10 10:20:57;;;;;;;2.42;1.40;;;4.20;99.90;;;;;;6250567;23;20432;-90
2023/03/10 10:23:53;;;;;;;1.95;1.10;;;4.10;99.90;;;;;;6221211;23;20444;-89
2023/03/10 10:26:28;;;;;;;0.85;0.80;;;4.10;99.90;;;;;;6221490;23;20011;-90
2023/03/10 10:29:10;;;;;;;1.98;1.35;;;4.00;99.90;;;;;;6221903;23;20008;-90
2023/03/10 10:31:35;;;;;;;1.80;0.82;;;4.10;99.90;;;;;;6221640;23;20004;-88
2023/03/10 10:34:16;;;;;;;2.63;0.70;;;4.30;99.90;;;;;;6223189;23;20000;-90
2023/03/10 10:36:54;;;;;;;;;;;4.40;99.90;;;;;;6221794;23;20008;-92
2023/03/10 10:39:31;;;;;;;1.40;0.90;;;4.60;99.90;;;;;;6225094;23;19904;-92
2023/03/10 10:42:27;;;;;;;1.02;0.80;;;4.60;99.90;;;;;;6228464;23;20019;-93
2023/03/10 10:44:58;;;;;;;4.03;1.00;;;4.90;99.90;;;;;;6207828;23;20018;-93
2023/03/10 10:47:29;;;;;;;1.98;1.10;;;5.00;99.90;;;;;;6226317;23;20000;-93
2023/03/10 10:50:08;;;;;;;1.45;0.90;;;5.00;99.90;;;;;;6238195;23;20000;-93
2023/03/10 10:52:34;;;;;;;1.85;0.80;;;5.00;99.90;;;;;;6236253;23;20004;-93
2023/03/10 10:55:01;;;;;;;2.17;1.40;;;5.00;99.90;;;;;;6226359;23;20075;-93
2023/03/10 10:57:44;;;;;;;1.50;0.85;;;4.90;99.90;;;;;;6232742;23;20020;-94
2023/03/10 11:00:30;;;;;;;2.95;0.80;;;4.80;99.90;;;;;;6246389;22;20000;-93
2023/03/10 11:02:56;;;;;;;1.80;1.00;;;4.70;99.90;;;;;;6247570;23;20009;-91
2023/03/10 11:05:30;;;;;;;1.83;0.88;;;4.70;99.90;;;;;;6219855;22;20008;-93
2023/03/10 11:08:14;;;;;;;1.77;0.80;;;4.80;99.90;;;;;;6269617;23;20003;-93
2023/03/10 11:10:40;;;;;;;2.28;0.70;;;5.20;99.90;;;;;;6264312;23;20036;-95
2023/03/10 11:13:22;;;;;;;5.22;1.00;;;5.60;99.90;;;;;;6232506;23;20000;-93
2023/03/10 11:16:04;;;;;;;1.88;1.25;;;6.20;99.90;;;;;;6231993;23;20016;-93
2023/03/10 11:18:51;;;;;;;2.40;0.70;;;6.70;99.90;;;;;;6223431;23;20083;-93
2023/03/10 11:21:30;;;;;;;4.88;0.80;;;7.10;99.90;;;;;;6222299;23;20004;-95
2023/03/10 11:24:07;;;;;;;4.13;1.17;;;7.40;99.90;;;;;;6220934;23;20004;-93
2023/03/10 11:27:04;;;;;;;2.05;0.95;;;7.60;99.90;;;;;;6221108;23;20004;-95
2023/03/10 11:29:40;;;;;;;2.72;1.30;;;8.00;99.90;;;;;;6221076;23;20004;-94
2023/03/10 11:32:37;;;;;;;4.30;1.05;;;8.20;99.90;;;;;;6223933;23;20015;-96
2023/03/10 11:35:17;;;;;;;8.10;1.60;;;8.50;99.90;;;;;;6243526;23;20019;-95
2023/03/10 11:37:48;;;;;;;8.52;2.40;;;8.80;99.90;;;;;;6249159;22;19996;-87
2023/03/10 11:40:25;;;;;;;4.03;1.30;;;9.00;99.90;;;;;;6274121;22;19991;-87
2023/03/10 11:43:02;;;;;;;11.68;3.50;;;9.50;99.90;;;;;;6248755;23;19984;-91
2023/03/10 11:45:43;;;;;;;8.02;2.20;;;9.90;99.90;;;;;;6249061;22;20019;-85
2023/03/10 11:48:35;;;;;;;5.55;1.20;;;10.20;99.90;;;;;;6264717;22;20012;-95
2023/03/10 11:51:03;;;;;;;7.10;1.40;;;10.40;99.40;;;;;;6222144;23;20011;-95
2023/03/10 11:53:49;;;;;;;4.78;1.60;;;10.60;98.20;;;;;;6248163;23;20071;-95
2023/03/10 11:56:18;;;;;;;4.88;1.63;;;10.80;96.50;;;;;;6221259;23;20016;-95
2023/03/10 11:59:08;;;;;;;6.75;1.75;;;10.90;95.30;;;;;;6245913;23;20001;-95
2023/03/10 12:02:01;;;;;;;5.30;1.75;;;10.80;93.10;;;;;;6221833;23;20008;-95
2023/03/10 12:04:56;;;;;;;5.47;1.60;;;10.60;92.00;;;;;;6221421;23;20012;-95
2023/03/10 12:07:27;;;;;;;4.47;1.30;;;10.40;91.60;;;;;;6221398;23;20008;-94
2023/03/10 12:09:57;;;;;;;4.15;1.25;;;10.50;91.90;;;;;;6220564;23;20023;-94
2023/03/10 12:12:30;;;;;;;4.35;1.48;;;10.60;91.70;;;;;;6247773;23;20000;-94
2023/03/10 12:14:58;;;;;;;4.95;1.73;;;10.70;90.70;;;;;;6238930;23;20004;-95
2023/03/10 12:17:24;;;;;;;4.38;1.45;;;10.70;90.20;;;;;;6225480;23;20015;-95
2023/03/10 12:20:12;;;;;;;8.15;1.80;;;10.90;90.20;;;;;;6229317;23;20072;-96
2023/03/10 12:22:40;;;;;;;3.35;1.30;;;11.10;89.40;;;;;;6269986;23;20000;-96
2023/03/10 12:25:28;;;;;;;9.57;2.10;;;11.20;87.10;;;;;;6246672;23;20004;-93
2023/03/10 12:28:16;;;;;;;3.97;1.45;;;11.20;85.70;;;;;;6272698;22;20075;-95
2023/03/10 12:31:09;;;;;;;7.60;1.73;;;11.30;85.00;;;;;;6229169;23;20089;-95
2023/03/10 12:33:41;;;;;;;1.42;0.95;;;11.30;83.80;;;;;;6251799;23;20423;-95
2023/03/10 12:36:34;;;;;;;2.88;1.30;;;11.40;83.30;;;;;;6249110;23;20058;-93
2023/03/10 12:39:00;;;;;;;5.50;1.48;;;11.60;83.10;;;;;;6251383;23;20063;-95
2023/03/10 12:41:25;;;;;;;4.72;1.05;;;11.90;82.00;;;;;;6224796;23;20004;-95
2023/03/10 12:44:08;;;;;;;4.47;1.60;;;11.90;80.40;;;;;;6252470;23;20007;-96
2023/03/10 12:46:41;;;;;;;8.88;1.98;;;12.00;80.00;;;;;;6251283;23;20446;-95
2023/03/10 12:49:51;;;;;;;5.65;1.90;;;12.10;79.70;;;;;;6249821;23;20011;-96
2023/03/10 12:52:19;;;;;;;7.22;1.92;;;12.20;78.70;;;;;;6242006;23;20012;-95
2023/03/10 12:55:02;;;;;;;7.82;2.35;;;12.40;78.20;;;;;;6222678;23;20008;-94
2023/03/10 12:57:31;;;;;;;5.15;1.40;;;12.70;77.00;;;;;;6251871;23;20000;-95
2023/03/10 13:00:28;;;;;;;7.85;1.60;;;12.80;75.50;;;;;;6235041;22;20004;-89
2023/03/10 13:06:36;;;;;;;7.78;1.60;;;12.90;74.70;;;;;;6274800;22;20007;-84
2023/03/10 13:09:30;;;;;;;3.85;1.08;;;12.90;73.50;;;;;;6275057;22;20012;-82
2023/03/10 13:12:13;;;;;;;10.00;1.40;;;12.70;72.20;;;;;;6274667;22;20022;-83
2023/03/10 13:14:42;;;;;;;6.20;1.55;;;12.60;72.70;;;;;;6274527;22;20011;-90